Time;durP1;ratioP1;P1;durP2;ratioP2;P2;SDS_P1;SDS_P2;PMS_P1;PMS_P2;Temp;Humidity;BMP_temperature;BMP_pressure;BME280_temperature;BME280_humidity;BME280_pressure;Samples;Min_cycle;Max_cycle;Signal;HPM_P1;HPM_P2
2022/07/14 00:01:03;;;;;;;3.27;2.77;;;26.10;69.70;;;;;;5097912;28;20636;-92
2022/07/14 00:03:29;;;;;;;3.97;2.70;;;26.10;69.70;;;;;;5097974;28;20197;-93
2022/07/14 00:05:54;;;;;;;4.67;2.67;;;26.10;69.80;;;;;;5098118;28;20194;-92
2022/07/14 00:08:21;;;;;;;4.20;2.30;;;26.10;70.00;;;;;;5097709;28;20178;-92
2022/07/14 00:10:46;;;;;;;3.30;2.40;;;26.10;70.00;;;;;;5098503;28;20180;-92
2022/07/14 00:13:12;;;;;;;3.03;2.40;;;26.10;70.00;;;;;;5097994;28;20166;-93
2022/07/14 00:15:38;;;;;;;5.33;2.30;;;26.10;70.10;;;;;;5097197;28;20166;-92
2022/07/14 00:18:04;;;;;;;3.03;2.50;;;26.10;70.30;;;;;;5097885;28;20226;-92
2022/07/14 00:20:30;;;;;;;2.77;2.10;;;26.10;70.40;;;;;;5098152;28;20166;-92
2022/07/14 00:22:56;;;;;;;2.90;2.30;;;26.00;70.50;;;;;;5097011;28;20440;-93
2022/07/14 00:25:26;;;;;;;3.47;2.37;;;26.00;70.50;;;;;;5098142;28;20269;-92
2022/07/14 00:27:53;;;;;;;4.37;2.53;;;26.00;70.50;;;;;;5097931;28;20251;-93
2022/07/14 00:30:20;;;;;;;4.43;2.40;;;26.00;70.60;;;;;;5115693;28;20190;-92
2022/07/14 00:32:46;;;;;;;2.30;2.10;;;26.00;70.70;;;;;;5097504;28;20172;-92
2022/07/14 00:35:12;;;;;;;2.30;2.10;;;26.00;70.70;;;;;;5097201;28;20586;-92
2022/07/14 00:37:38;;;;;;;2.50;2.30;;;26.00;70.60;;;;;;5097304;28;20170;-92
2022/07/14 00:40:06;;;;;;;2.87;2.20;;;26.00;70.60;;;;;;5097446;28;20171;-92
2022/07/14 00:42:37;;;;;;;4.40;2.30;;;26.00;70.80;;;;;;5097810;28;20190;-93
2022/07/14 00:45:14;;;;;;;4.00;2.50;;;26.00;71.00;;;;;;5119013;28;20253;-93
2022/07/14 00:47:41;;;;;;;6.10;2.50;;;26.00;70.90;;;;;;5101105;28;20184;-92
2022/07/14 00:50:09;;;;;;;3.10;2.30;;;26.00;70.90;;;;;;5100693;28;20202;-92
2022/07/14 00:52:35;;;;;;;4.50;2.57;;;26.00;70.90;;;;;;5117671;28;20162;-92
2022/07/14 00:55:02;;;;;;;2.33;2.07;;;25.90;70.70;;;;;;5100345;28;20269;-92
2022/07/14 00:57:28;;;;;;;4.50;2.23;;;25.90;71.10;;;;;;5100569;28;20274;-92
2022/07/14 00:59:54;;;;;;;4.50;2.40;;;25.90;70.90;;;;;;5101148;28;20265;-92
2022/07/14 01:02:20;;;;;;;5.10;2.50;;;25.90;71.20;;;;;;5101507;28;20181;-93
2022/07/14 01:04:47;;;;;;;3.97;2.50;;;25.80;70.90;;;;;;5101770;28;20174;-93
2022/07/14 01:07:15;;;;;;;3.47;2.10;;;25.90;71.10;;;;;;5101559;28;20174;-93
2022/07/14 01:09:42;;;;;;;3.33;2.43;;;25.80;70.80;;;;;;5101306;28;20198;-93
2022/07/14 01:12:09;;;;;;;5.87;2.50;;;25.80;71.00;;;;;;5101546;28;20269;-92
2022/07/14 01:14:36;;;;;;;4.50;2.40;;;25.80;71.00;;;;;;5101518;28;20170;-92
2022/07/14 01:17:03;;;;;;;4.97;2.50;;;25.80;71.10;;;;;;5101800;28;20345;-93
2022/07/14 01:19:29;;;;;;;5.83;2.40;;;25.80;71.00;;;;;;5102240;28;20242;-93
2022/07/14 01:21:56;;;;;;;6.50;2.50;;;25.80;70.60;;;;;;5100808;28;20170;-93
2022/07/14 01:24:22;;;;;;;5.00;2.80;;;25.80;70.90;;;;;;5100402;28;20170;-93
2022/07/14 01:26:48;;;;;;;6.50;2.60;;;25.80;71.00;;;;;;5100715;28;20166;-92
2022/07/14 01:29:15;;;;;;;4.67;2.40;;;25.80;71.10;;;;;;5099853;28;20229;-92
2022/07/14 01:31:42;;;;;;;4.87;2.43;;;25.70;70.70;;;;;;5098625;28;20586;-93
2022/07/14 01:34:08;;;;;;;5.20;2.40;;;25.70;70.80;;;;;;5116753;28;20174;-93
2022/07/14 01:36:34;;;;;;;5.20;2.60;;;25.70;70.90;;;;;;5099512;28;20265;-93
2022/07/14 01:39:01;;;;;;;5.27;2.33;;;25.70;71.00;;;;;;5100173;28;20201;-93
2022/07/14 01:41:27;;;;;;;5.13;2.60;;;25.70;71.00;;;;;;5100370;28;20475;-91
2022/07/14 01:43:54;;;;;;;7.03;2.20;;;25.70;71.10;;;;;;5100623;28;20627;-93
2022/07/14 01:46:20;;;;;;;3.57;2.50;;;25.60;71.00;;;;;;5100072;28;20177;-92
2022/07/14 01:48:45;;;;;;;5.73;2.57;;;25.60;71.20;;;;;;5098861;28;20206;-93
2022/07/14 01:51:12;;;;;;;3.03;2.10;;;25.60;71.30;;;;;;5100340;28;20173;-93
2022/07/14 01:53:37;;;;;;;8.93;2.60;;;25.50;71.70;;;;;;5101193;28;20315;-92
2022/07/14 01:56:03;;;;;;;3.80;2.30;;;25.50;71.90;;;;;;5100000;28;20269;-92
2022/07/14 01:58:29;;;;;;;5.30;2.57;;;25.50;72.20;;;;;;5117440;28;20170;-93
2022/07/14 02:03:39;;;;;;;5.90;2.20;;;25.40;72.30;;;;;;5118445;28;20232;-92
2022/07/14 02:06:05;;;;;;;4.67;2.27;;;25.40;72.40;;;;;;5100170;28;20163;-93
2022/07/14 02:08:31;;;;;;;5.23;2.70;;;25.40;72.60;;;;;;5099309;28;20618;-92
2022/07/14 02:13:41;;;;;;;5.23;2.40;;;25.40;72.80;;;;;;5117666;28;20230;-92
2022/07/14 02:16:08;;;;;;;5.97;2.23;;;25.40;73.00;;;;;;5099665;28;20183;-92
2022/07/14 02:18:34;;;;;;;5.67;2.80;;;25.40;73.10;;;;;;5099813;28;20174;-92
2022/07/14 02:21:00;;;;;;;4.90;2.50;;;25.40;73.20;;;;;;5099653;28;20605;-92
2022/07/14 02:23:26;;;;;;;4.80;2.43;;;25.30;73.10;;;;;;5099413;28;20262;-92
2022/07/14 02:25:51;;;;;;;4.43;2.60;;;25.30;73.30;;;;;;5099805;28;20371;-92
2022/07/14 02:28:17;;;;;;;5.13;2.53;;;25.30;73.30;;;;;;5099750;28;20178;-92
2022/07/14 02:30:44;;;;;;;5.80;2.37;;;25.30;73.40;;;;;;5100398;28;20166;-92
2022/07/14 02:33:10;;;;;;;3.57;2.23;;;25.30;73.50;;;;;;5099923;28;20166;-92
2022/07/14 02:35:36;;;;;;;4.43;2.40;;;25.20;73.30;;;;;;5099623;28;20177;-92
2022/07/14 02:38:02;;;;;;;4.87;2.40;;;25.20;73.20;;;;;;5099298;28;20463;-92
2022/07/14 02:40:28;;;;;;;6.80;2.60;;;25.20;73.20;;;;;;5099225;28;20225;-92
2022/07/14 02:42:54;;;;;;;5.20;2.17;;;25.20;73.40;;;;;;5099437;28;20182;-92
2022/07/14 02:45:20;;;;;;;4.77;2.40;;;25.20;73.40;;;;;;5099574;28;20170;-92
2022/07/14 02:47:46;;;;;;;5.30;2.60;;;25.20;73.50;;;;;;5099350;28;20181;-92
2022/07/14 02:50:11;;;;;;;4.90;2.27;;;25.20;73.50;;;;;;5100110;28;20208;-92
2022/07/14 02:52:38;;;;;;;5.47;2.07;;;25.20;73.30;;;;;;5099153;28;20196;-92
2022/07/14 02:55:05;;;;;;;4.60;2.27;;;25.20;73.40;;;;;;5099088;28;20568;-92
2022/07/14 02:57:31;;;;;;;6.07;2.40;;;25.20;73.50;;;;;;5098865;28;20183;-92
2022/07/14 02:59:58;;;;;;;6.50;2.37;;;25.20;73.40;;;;;;5098409;28;20194;-93
2022/07/14 03:02:24;;;;;;;5.03;2.33;;;25.20;73.40;;;;;;5098395;28;20181;-93
2022/07/14 03:04:50;;;;;;;6.60;2.60;;;25.20;73.50;;;;;;5098575;28;20193;-92
2022/07/14 03:07:16;;;;;;;4.20;2.10;;;25.10;73.50;;;;;;5098316;28;20179;-92
2022/07/14 03:09:42;;;;;;;4.63;2.20;;;25.10;73.60;;;;;;5098526;28;20259;-92
2022/07/14 03:12:08;;;;;;;5.67;2.50;;;25.10;73.50;;;;;;5099305;28;20257;-92
2022/07/14 03:14:33;;;;;;;9.67;2.70;;;25.10;73.80;;;;;;5098546;28;20174;-92
2022/07/14 03:16:59;;;;;;;4.60;2.50;;;25.10;73.80;;;;;;5098478;28;20181;-92
2022/07/14 03:19:25;;;;;;;5.60;2.30;;;25.10;73.70;;;;;;5098009;28;20194;-92
2022/07/14 03:21:52;;;;;;;5.47;2.30;;;25.10;73.70;;;;;;5098245;28;20467;-93
2022/07/14 03:24:20;;;;;;;6.73;2.40;;;25.10;73.80;;;;;;5098196;28;20268;-92
2022/07/14 03:26:46;;;;;;;4.27;2.60;;;25.00;73.60;;;;;;5098143;28;20174;-92
2022/07/14 03:29:12;;;;;;;8.93;3.00;;;25.00;73.80;;;;;;5097544;28;20205;-92
2022/07/14 03:31:38;;;;;;;5.47;2.50;;;25.00;73.80;;;;;;5097642;28;20444;-92
2022/07/14 03:34:05;;;;;;;3.87;2.67;;;25.00;73.80;;;;;;5098182;28;20167;-93
2022/07/14 03:36:31;;;;;;;4.23;2.20;;;25.00;73.80;;;;;;5097248;28;20484;-93
2022/07/14 03:38:57;;;;;;;5.77;2.20;;;25.00;73.70;;;;;;5097334;28;20582;-92
2022/07/14 03:41:23;;;;;;;5.27;2.23;;;25.00;73.60;;;;;;5098000;28;20245;-92
2022/07/14 03:43:48;;;;;;;5.07;2.17;;;25.00;73.70;;;;;;5097722;28;20174;-92
2022/07/14 03:46:14;;;;;;;5.00;2.30;;;25.00;73.40;;;;;;5096452;28;20185;-92
2022/07/14 03:48:40;;;;;;;4.93;2.50;;;25.00;73.60;;;;;;5097269;28;20524;-92
2022/07/14 03:51:07;;;;;;;4.97;2.63;;;25.00;73.50;;;;;;5097982;28;20174;-91
2022/07/14 03:53:33;;;;;;;6.80;2.57;;;25.00;73.70;;;;;;5098316;28;20198;-91
2022/07/14 03:56:00;;;;;;;5.23;2.50;;;24.90;73.70;;;;;;5097365;28;20170;-91
2022/07/14 03:58:27;;;;;;;5.80;2.53;;;24.90;73.80;;;;;;5114247;28;20204;-91
2022/07/14 04:00:53;;;;;;;6.70;2.67;;;24.90;73.50;;;;;;5096868;28;20660;-91
2022/07/14 04:03:19;;;;;;;6.27;2.50;;;24.90;73.30;;;;;;5097253;28;20213;-91
2022/07/14 04:05:45;;;;;;;5.30;2.30;;;24.90;73.40;;;;;;5114819;28;20425;-90
2022/07/14 04:08:11;;;;;;;7.27;2.53;;;24.90;73.30;;;;;;5097230;28;20170;-90
2022/07/14 04:10:38;;;;;;;6.73;2.70;;;24.90;73.70;;;;;;5096859;28;20474;-91
2022/07/14 04:13:04;;;;;;;7.00;2.30;;;24.90;73.30;;;;;;5096976;28;20174;-90
2022/07/14 04:15:30;;;;;;;6.63;2.70;;;24.90;73.20;;;;;;5097591;28;20170;-91
2022/07/14 04:17:57;;;;;;;6.33;2.50;;;24.90;72.90;;;;;;5098970;28;20343;-91
2022/07/14 04:20:24;;;;;;;7.30;2.30;;;24.90;73.20;;;;;;5100001;28;20197;-90
2022/07/14 04:22:51;;;;;;;5.97;2.40;;;24.90;73.40;;;;;;5101317;28;20177;-92
2022/07/14 04:25:17;;;;;;;6.00;2.63;;;24.90;72.80;;;;;;5100667;28;20198;-92
2022/07/14 04:27:43;;;;;;;6.50;2.17;;;24.90;73.00;;;;;;5099430;28;20181;-93
2022/07/14 04:30:11;;;;;;;4.87;2.70;;;24.90;72.80;;;;;;5100627;28;20208;-93
2022/07/14 04:32:37;;;;;;;6.07;2.47;;;24.90;72.20;;;;;;5100216;28;20174;-93
2022/07/14 04:35:03;;;;;;;5.00;2.40;;;24.90;72.20;;;;;;5099737;28;20166;-92
2022/07/14 04:37:29;;;;;;;6.27;2.80;;;24.90;72.00;;;;;;5100338;28;20176;-93
2022/07/14 04:39:56;;;;;;;4.90;2.60;;;24.90;71.50;;;;;;5100800;28;20182;-92
2022/07/14 04:42:22;;;;;;;7.73;2.77;;;24.90;71.70;;;;;;5099481;28;20201;-92
2022/07/14 04:44:48;;;;;;;7.07;2.70;;;24.90;71.70;;;;;;5099772;28;20470;-93
2022/07/14 04:47:14;;;;;;;5.20;2.30;;;24.90;71.80;;;;;;5100135;28;20178;-93
2022/07/14 04:52:24;;;;;;;5.20;2.30;;;24.90;71.20;;;;;;5118092;28;20238;-92
2022/07/14 04:54:51;;;;;;;6.53;2.30;;;24.90;71.20;;;;;;5116901;28;20489;-92
2022/07/14 04:57:16;;;;;;;7.37;2.83;;;24.90;71.40;;;;;;5099791;28;20173;-91
2022/07/14 04:59:42;;;;;;;6.40;2.57;;;24.90;71.50;;;;;;5099064;28;20170;-91
2022/07/14 05:02:08;;;;;;;5.50;2.60;;;24.90;71.50;;;;;;5099108;28;20166;-91
2022/07/14 05:04:34;;;;;;;8.10;2.97;;;24.80;71.30;;;;;;5098293;28;20459;-91
2022/07/14 05:07:00;;;;;;;6.60;2.63;;;24.80;71.40;;;;;;5099219;28;20185;-91
2022/07/14 05:09:26;;;;;;;7.77;2.73;;;24.80;71.50;;;;;;5099321;28;20202;-91
2022/07/14 05:11:53;;;;;;;5.83;2.53;;;24.90;71.60;;;;;;5098028;28;20173;-91
2022/07/14 05:14:19;;;;;;;8.30;2.37;;;24.80;71.20;;;;;;5097989;28;20166;-91
2022/07/14 05:16:45;;;;;;;7.53;2.60;;;24.80;71.10;;;;;;5098990;28;20232;-91
2022/07/14 05:19:12;;;;;;;6.53;2.30;;;24.90;71.20;;;;;;5116111;28;20331;-91
2022/07/14 05:21:37;;;;;;;7.60;2.73;;;24.90;71.10;;;;;;5098106;28;20301;-91
2022/07/14 05:24:04;;;;;;;7.70;2.50;;;24.90;70.90;;;;;;5098576;28;20170;-91
2022/07/14 05:26:29;;;;;;;5.93;2.37;;;24.90;70.80;;;;;;5098415;28;20174;-91
2022/07/14 05:28:55;;;;;;;8.27;2.97;;;24.90;70.60;;;;;;5097056;28;20208;-92
2022/07/14 05:31:21;;;;;;;8.60;2.70;;;25.00;70.40;;;;;;5096497;28;20424;-92
2022/07/14 05:33:48;;;;;;;8.43;2.87;;;25.00;69.70;;;;;;5097847;28;20171;-92
2022/07/14 05:36:14;;;;;;;8.27;2.97;;;25.10;69.50;;;;;;5097780;28;20253;-92
2022/07/14 05:38:41;;;;;;;6.37;2.67;;;25.10;69.10;;;;;;5097665;28;20243;-92
2022/07/14 05:41:06;;;;;;;7.47;2.80;;;25.20;68.50;;;;;;5097705;28;20666;-92
2022/07/14 05:43:32;;;;;;;7.47;2.73;;;25.30;69.00;;;;;;5097941;28;20459;-91
2022/07/14 05:46:07;;;;;;;7.33;2.80;;;25.30;67.80;;;;;;5098261;28;20209;-92
2022/07/14 05:48:33;;;;;;;7.90;2.80;;;25.40;67.30;;;;;;5096965;28;20185;-92
2022/07/14 05:51:11;;;;;;;5.57;2.50;;;25.50;66.80;;;;;;5115514;28;20604;-91
2022/07/14 05:53:38;;;;;;;8.40;2.70;;;25.60;65.70;;;;;;5095986;28;20465;-92
2022/07/14 05:56:05;;;;;;;5.80;2.67;;;25.70;65.30;;;;;;5095160;28;20201;-92
2022/07/14 05:58:33;;;;;;;6.63;2.47;;;25.80;64.40;;;;;;5095728;28;20170;-92
2022/07/14 06:00:58;;;;;;;5.63;2.57;;;25.90;63.50;;;;;;5096177;28;20197;-92
2022/07/14 06:03:24;;;;;;;6.47;2.60;;;26.00;62.80;;;;;;5096406;28;20582;-93
2022/07/14 06:05:50;;;;;;;5.27;2.47;;;26.10;62.20;;;;;;5096817;28;20166;-92
2022/07/14 06:08:16;;;;;;;6.63;2.70;;;26.20;62.20;;;;;;5095090;28;20268;-93
2022/07/14 06:10:45;;;;;;;6.23;2.57;;;26.30;62.20;;;;;;5095537;28;20305;-94
2022/07/14 06:13:11;;;;;;;5.73;2.70;;;26.40;61.20;;;;;;5096962;28;20608;-93
2022/07/14 06:15:37;;;;;;;5.50;2.63;;;26.60;60.50;;;;;;5096100;28;20163;-93
2022/07/14 06:18:03;;;;;;;6.33;2.70;;;26.80;59.70;;;;;;5095554;28;20166;-94
2022/07/14 06:20:29;;;;;;;5.33;2.57;;;26.90;59.30;;;;;;5095320;28;20236;-93
2022/07/14 06:22:54;;;;;;;4.23;2.20;;;27.00;58.80;;;;;;5097699;28;20292;-93
2022/07/14 06:25:21;;;;;;;9.03;2.93;;;27.10;58.50;;;;;;5095365;28;20246;-93
2022/07/14 06:27:46;;;;;;;5.07;2.43;;;27.10;58.60;;;;;;5096883;28;20174;-93
2022/07/14 06:30:13;;;;;;;6.20;2.63;;;27.30;58.70;;;;;;5096315;28;20217;-93
2022/07/14 06:32:39;;;;;;;4.70;2.43;;;27.30;57.80;;;;;;5094875;28;20170;-92
2022/07/14 06:35:06;;;;;;;5.37;2.53;;;27.30;57.80;;;;;;5095276;28;20205;-93
2022/07/14 06:37:34;;;;;;;6.70;2.60;;;27.30;58.00;;;;;;5096188;28;20247;-92
2022/07/14 06:40:04;;;;;;;8.47;2.63;;;27.30;57.70;;;;;;5092531;28;20206;-92
2022/07/14 06:42:30;;;;;;;4.73;2.27;;;27.40;57.70;;;;;;5094579;28;20276;-92
2022/07/14 06:44:56;;;;;;;6.07;2.70;;;27.40;57.40;;;;;;5094107;28;20296;-92
2022/07/14 06:47:22;;;;;;;5.23;2.80;;;27.50;57.30;;;;;;5092540;28;20181;-93
2022/07/14 06:49:47;;;;;;;4.63;2.30;;;27.50;57.20;;;;;;5093174;28;20206;-93
2022/07/14 06:52:13;;;;;;;5.53;2.17;;;27.60;57.00;;;;;;5094745;28;20172;-92
2022/07/14 06:54:39;;;;;;;5.70;2.50;;;27.80;56.80;;;;;;5094460;28;20177;-92
2022/07/14 06:57:05;;;;;;;5.80;2.30;;;27.70;56.80;;;;;;5094053;28;20174;-92
2022/07/14 06:59:31;;;;;;;8.20;2.80;;;27.70;56.80;;;;;;5095083;28;20185;-93
2022/07/14 07:01:57;;;;;;;5.90;2.37;;;27.70;56.60;;;;;;5094351;28;20459;-93
2022/07/14 07:04:23;;;;;;;7.23;2.90;;;27.80;56.60;;;;;;5093397;28;20194;-93
2022/07/14 07:06:50;;;;;;;6.60;2.70;;;27.70;56.40;;;;;;5093494;28;20185;-92
2022/07/14 07:09:19;;;;;;;7.00;2.50;;;27.60;56.40;;;;;;5094402;28;20308;-92
2022/07/14 07:11:45;;;;;;;8.23;2.47;;;27.50;56.70;;;;;;5093836;28;20234;-93
2022/07/14 07:14:12;;;;;;;5.63;2.43;;;27.50;56.80;;;;;;5093243;28;20588;-93
2022/07/14 07:16:38;;;;;;;7.30;2.70;;;27.50;56.80;;;;;;5111854;28;20559;-92
2022/07/14 07:19:04;;;;;;;5.23;2.63;;;27.50;56.70;;;;;;5093403;28;20177;-93
2022/07/14 07:21:30;;;;;;;4.23;2.30;;;27.50;56.90;;;;;;5094555;28;20487;-93
2022/07/14 07:23:56;;;;;;;4.60;2.33;;;27.60;56.80;;;;;;5094235;28;20171;-93
2022/07/14 07:26:25;;;;;;;4.90;2.25;;;27.80;56.50;;;;;;5110995;28;20646;-92
2022/07/14 07:28:54;;;;;;;7.77;2.80;;;27.70;56.40;;;;;;5091820;28;20266;-92
2022/07/14 07:31:20;;;;;;;5.37;2.47;;;27.50;56.60;;;;;;5109132;28;20181;-92
2022/07/14 07:33:46;;;;;;;4.97;2.50;;;27.40;56.90;;;;;;5092385;28;20280;-92
2022/07/14 07:36:13;;;;;;;5.23;2.30;;;27.40;57.10;;;;;;5092797;28;20162;-92
2022/07/14 07:38:38;;;;;;;5.27;2.80;;;27.30;57.00;;;;;;5091802;28;20335;-92
2022/07/14 07:41:04;;;;;;;11.73;3.60;;;27.30;57.30;;;;;;5091699;28;20162;-92
2022/07/14 07:43:30;;;;;;;5.93;2.80;;;27.20;58.00;;;;;;5092057;28;20505;-92
2022/07/14 07:45:56;;;;;;;5.00;2.20;;;27.00;57.70;;;;;;5091755;28;20174;-92
2022/07/14 07:48:22;;;;;;;6.53;2.80;;;27.10;57.80;;;;;;5090588;28;20162;-92
2022/07/14 07:50:49;;;;;;;7.27;2.90;;;27.20;57.80;;;;;;5090899;28;20296;-93
2022/07/14 07:53:15;;;;;;;8.10;3.20;;;27.30;57.40;;;;;;5091786;28;20166;-92
2022/07/14 07:55:41;;;;;;;5.77;2.20;;;27.60;57.20;;;;;;5091408;28;20243;-92
2022/07/14 07:58:07;;;;;;;5.65;2.50;;;28.10;56.10;;;;;;5092348;28;20194;-92
2022/07/14 08:00:35;;;;;;;5.28;2.50;;;28.20;55.70;;;;;;5109083;28;20170;-92
2022/07/14 08:03:01;;;;;;;6.30;2.50;;;28.20;55.60;;;;;;5091321;28;20250;-92
2022/07/14 08:05:28;;;;;;;4.60;2.40;;;28.10;55.60;;;;;;5092160;28;20209;-92
2022/07/14 08:07:54;;;;;;;4.10;2.57;;;28.00;55.60;;;;;;5090247;28;20174;-92
2022/07/14 08:10:21;;;;;;;5.23;2.43;;;28.00;55.70;;;;;;5092132;28;20214;-92
2022/07/14 08:12:47;;;;;;;7.18;2.80;;;27.90;55.70;;;;;;5090740;28;20215;-92
2022/07/14 08:15:14;;;;;;;4.40;2.30;;;27.70;55.70;;;;;;5091154;28;20170;-93
2022/07/14 08:17:41;;;;;;;4.47;2.50;;;27.80;55.80;;;;;;5089965;28;20170;-92
2022/07/14 08:20:08;;;;;;;4.87;2.50;;;27.80;55.80;;;;;;5090933;28;20266;-92
2022/07/14 08:22:35;;;;;;;6.10;2.65;;;27.80;55.80;;;;;;5090555;28;20170;-92
2022/07/14 08:25:01;;;;;;;6.55;2.75;;;28.20;55.70;;;;;;5092102;28;20174;-92
2022/07/14 08:27:28;;;;;;;3.33;2.22;;;28.90;54.70;;;;;;5090142;28;20243;-92
2022/07/14 08:33:16;;;;;;;4.60;2.50;;;31.80;51.40;;;;;;5107480;28;20179;-92
2022/07/14 08:35:42;;;;;;;8.25;2.55;;;32.30;50.30;;;;;;5091094;28;20170;-92
2022/07/14 08:38:08;;;;;;;5.25;2.50;;;31.80;50.10;;;;;;5091111;28;20583;-92
2022/07/14 08:40:37;;;;;;;7.30;2.75;;;30.80;50.90;;;;;;5092269;28;20203;-92
2022/07/14 08:43:03;;;;;;;4.28;2.60;;;30.30;51.40;;;;;;5090344;28;20656;-92
2022/07/14 08:45:33;;;;;;;4.60;2.50;;;30.60;51.50;;;;;;5090080;28;20264;-92
2022/07/14 08:48:00;;;;;;;6.15;2.63;;;31.00;51.30;;;;;;5091743;28;20178;-92
2022/07/14 08:50:26;;;;;;;5.07;2.65;;;31.30;50.80;;;;;;5073881;28;20213;-92
2022/07/14 08:52:52;;;;;;;4.65;2.70;;;32.10;50.40;;;;;;5090974;28;20166;-92
2022/07/14 08:55:20;;;;;;;5.03;2.53;;;32.50;49.70;;;;;;5092156;28;20166;-93
2022/07/14 08:57:46;;;;;;;4.82;2.70;;;32.70;49.40;;;;;;5072888;28;20166;-92
2022/07/14 09:00:17;;;;;;;5.90;2.92;;;32.60;49.70;;;;;;5110000;28;20426;-92
2022/07/14 09:02:49;;;;;;;8.85;3.50;;;33.00;49.00;;;;;;5090918;28;20210;-92
2022/07/14 09:05:15;;;;;;;4.68;2.50;;;32.20;47.70;;;;;;5091251;28;20681;-92
2022/07/14 09:07:41;;;;;;;4.32;2.40;;;32.10;49.40;;;;;;5093888;28;20182;-90
2022/07/14 09:10:19;;;;;;;5.18;2.60;;;32.50;49.30;;;;;;5077458;28;20296;-90
2022/07/14 09:12:45;;;;;;;6.50;2.42;;;32.10;49.40;;;;;;5094220;28;20206;-90
2022/07/14 09:18:25;;;;;;;5.70;2.97;;;32.10;49.20;;;;;;5047854;28;20204;-91
2022/07/14 09:20:53;;;;;;;5.93;2.70;;;31.90;49.30;;;;;;5015672;28;20613;-90
2022/07/14 09:23:31;;;;;;;3.67;2.47;;;31.60;49.50;;;;;;5066510;28;20614;-90
2022/07/14 09:26:15;;;;;;;3.78;2.35;;;31.30;49.60;;;;;;5094750;28;20474;-89
2022/07/14 09:28:43;;;;;;;5.05;2.58;;;31.10;49.90;;;;;;5094676;28;20267;-90
2022/07/14 09:31:29;;;;;;;5.00;2.42;;;31.10;49.90;;;;;;5094575;28;20174;-91
2022/07/14 09:33:57;;;;;;;5.78;2.80;;;31.00;50.00;;;;;;5094631;28;20170;-90
2022/07/14 09:36:35;;;;;;;6.18;2.60;;;30.90;50.00;;;;;;5094949;28;20174;-90
2022/07/14 09:39:02;;;;;;;5.13;2.70;;;30.80;50.00;;;;;;5095581;28;20744;-90
2022/07/14 09:41:32;;;;;;;5.32;2.50;;;30.70;50.00;;;;;;5094746;28;20573;-91
2022/07/14 09:44:12;;;;;;;5.20;2.67;;;30.60;50.00;;;;;;5093745;28;20178;-89
2022/07/14 09:46:50;;;;;;;4.15;2.67;;;30.60;50.00;;;;;;5093213;28;20364;-89
2022/07/14 09:49:19;;;;;;;4.53;2.80;;;30.60;49.80;;;;;;5093501;28;20359;-88
2022/07/14 09:52:04;;;;;;;4.63;2.45;;;30.60;49.70;;;;;;5094849;28;20178;-89
2022/07/14 09:54:47;;;;;;;5.47;2.42;;;30.60;49.80;;;;;;5094059;28;20288;-89
2022/07/14 09:57:12;;;;;;;5.95;2.45;;;30.50;49.80;;;;;;5092305;28;20227;-90
2022/07/14 09:59:46;;;;;;;4.53;2.35;;;30.50;49.60;;;;;;5092195;28;20231;-90
2022/07/14 10:02:29;;;;;;;4.13;2.17;;;30.50;49.80;;;;;;5110554;28;20174;-90
2022/07/14 10:05:01;;;;;;;5.38;2.55;;;30.60;50.00;;;;;;5094215;28;20184;-90
2022/07/14 10:07:33;;;;;;;4.55;2.50;;;30.60;49.50;;;;;;5110804;28;20174;-90
2022/07/14 10:10:07;;;;;;;4.47;2.50;;;30.40;49.50;;;;;;5112427;28;20202;-89
2022/07/14 10:12:35;;;;;;;4.18;2.00;;;30.50;49.70;;;;;;5092603;28;20460;-89
2022/07/14 10:15:04;;;;;;;4.18;2.40;;;30.50;49.70;;;;;;5092968;28;20178;-90
2022/07/14 10:17:30;;;;;;;6.97;2.40;;;30.40;49.70;;;;;;5091817;28;20219;-90
2022/07/14 10:19:57;;;;;;;5.65;2.28;;;30.50;49.50;;;;;;5109811;28;20331;-91
2022/07/14 10:22:23;;;;;;;5.63;2.17;;;30.40;49.60;;;;;;5092482;28;20559;-91
2022/07/14 10:24:50;;;;;;;5.70;2.28;;;30.40;49.70;;;;;;5110064;28;20174;-90
2022/07/14 10:27:18;;;;;;;6.43;2.40;;;30.30;49.70;;;;;;5092138;28;20695;-89
2022/07/14 10:29:59;;;;;;;4.97;2.10;;;30.20;49.70;;;;;;5091112;28;20238;-90
2022/07/14 10:33:00;;;;;;;3.65;2.22;;;30.00;49.80;;;;;;5106898;28;20182;-90
2022/07/14 10:36:00;;;;;;;3.45;2.10;;;30.00;50.00;;;;;;5091891;28;20177;-91
2022/07/14 10:38:54;;;;;;;3.83;2.40;;;30.00;49.90;;;;;;5092456;28;20380;-91
2022/07/14 10:41:49;;;;;;;5.55;2.40;;;29.90;50.00;;;;;;5109955;28;20166;-91
2022/07/14 10:44:30;;;;;;;4.97;2.22;;;29.80;49.90;;;;;;5095366;28;20170;-92
2022/07/14 10:47:41;;;;;;;4.13;1.98;;;29.70;50.20;;;;;;5091594;28;20166;-90
2022/07/14 10:50:12;;;;;;;5.10;2.20;;;29.70;50.10;;;;;;5081218;28;20206;-90
2022/07/14 10:53:04;;;;;;;3.97;2.00;;;29.60;50.00;;;;;;5091248;28;20582;-92
2022/07/14 10:55:30;;;;;;;3.15;2.00;;;29.60;49.20;;;;;;5079707;28;20184;-92
2022/07/14 10:57:59;;;;;;;2.67;1.80;;;29.50;50.20;;;;;;5091016;28;20170;-90
2022/07/14 11:03:19;;;;;;;10.38;2.35;;;29.40;50.10;;;;;;5109243;28;20190;-91
2022/07/14 11:08:32;;;;;;;8.52;2.05;;;29.20;49.90;;;;;;5109285;28;20277;-90
2022/07/14 11:11:04;;;;;;;6.15;1.95;;;29.30;50.20;;;;;;5090890;28;20516;-91
2022/07/14 11:13:30;;;;;;;5.35;2.17;;;29.20;50.30;;;;;;5091932;28;20430;-91
2022/07/14 11:16:03;;;;;;;7.03;2.00;;;29.20;50.30;;;;;;5075564;28;20606;-91
2022/07/14 11:18:37;;;;;;;5.78;2.00;;;29.20;50.40;;;;;;5089982;28;20243;-89
2022/07/14 11:21:19;;;;;;;5.90;1.90;;;29.20;50.20;;;;;;5089752;28;20189;-90
2022/07/14 11:23:50;;;;;;;7.55;2.05;;;29.20;50.10;;;;;;5109792;28;20166;-88
2022/07/14 11:26:42;;;;;;;3.90;1.80;;;29.30;50.20;;;;;;5092365;28;20389;-87
2022/07/14 11:29:09;;;;;;;6.88;1.90;;;29.20;50.10;;;;;;5093707;28;20531;-89
2022/07/14 11:31:47;;;;;;;6.72;2.00;;;29.20;50.30;;;;;;5075548;28;20202;-90
2022/07/14 11:37:19;;;;;;;4.53;1.80;;;29.10;50.10;;;;;;5107854;28;20205;-91
2022/07/14 11:39:45;;;;;;;4.63;1.60;;;29.20;50.10;;;;;;5091728;28;20169;-90
2022/07/14 11:42:16;;;;;;;3.80;1.80;;;29.10;49.60;;;;;;5073657;28;20174;-90
2022/07/14 11:44:43;;;;;;;3.22;1.52;;;29.10;50.40;;;;;;5090775;28;20181;-90
2022/07/14 11:47:23;;;;;;;2.17;1.63;;;29.10;50.40;;;;;;5090971;28;20375;-89
2022/07/14 11:49:59;;;;;;;4.25;1.90;;;29.00;50.40;;;;;;5090336;28;20201;-89
2022/07/14 11:52:33;;;;;;;3.35;1.50;;;29.00;50.50;;;;;;5109241;28;20177;-88
2022/07/14 11:55:01;;;;;;;3.40;1.92;;;29.00;49.70;;;;;;5091089;28;20165;-89
2022/07/14 11:57:28;;;;;;;2.83;1.85;;;29.00;50.30;;;;;;5092545;28;20192;-91
2022/07/14 12:03:04;;;;;;;3.97;1.70;;;29.00;50.40;;;;;;5050634;28;20253;-91
2022/07/14 12:05:31;;;;;;;2.55;1.50;;;28.90;50.60;;;;;;5030041;28;20504;-93
2022/07/14 12:08:02;;;;;;;5.32;1.60;;;28.90;50.60;;;;;;5030524;28;20199;-92
2022/07/14 12:10:42;;;;;;;3.35;1.50;;;28.90;49.70;;;;;;5033122;28;20620;-92
2022/07/14 12:13:08;;;;;;;4.13;1.58;;;28.90;50.30;;;;;;5033253;28;20180;-92
2022/07/14 12:15:35;;;;;;;2.72;1.40;;;28.90;50.60;;;;;;5029614;28;20172;-91
2022/07/14 12:18:04;;;;;;;2.25;1.60;;;28.80;50.60;;;;;;5028877;28;20720;-91
2022/07/14 12:20:42;;;;;;;3.22;1.80;;;28.80;50.10;;;;;;5030088;28;20597;-92
2022/07/14 12:23:09;;;;;;;3.00;1.52;;;28.80;50.30;;;;;;5030579;28;20255;-92
2022/07/14 12:25:36;;;;;;;1.77;1.40;;;28.80;50.50;;;;;;5029686;28;20185;-92
2022/07/14 12:28:04;;;;;;;4.00;1.60;;;28.90;50.50;;;;;;5028910;28;20192;-91
2022/07/14 12:30:51;;;;;;;3.25;1.90;;;28.90;50.30;;;;;;5030614;28;20208;-90
2022/07/14 12:33:36;;;;;;;2.25;1.55;;;28.90;47.80;;;;;;5047058;28;20560;-91
2022/07/14 12:36:03;;;;;;;2.65;1.52;;;28.90;48.60;;;;;;5089522;28;20162;-91
2022/07/14 12:38:32;;;;;;;2.60;1.60;;;28.90;50.20;;;;;;5091623;28;20566;-90
2022/07/14 12:41:02;;;;;;;2.80;1.63;;;28.90;47.90;;;;;;5092816;28;20370;-89
2022/07/14 12:43:34;;;;;;;2.10;1.50;;;28.90;48.70;;;;;;5095388;28;20177;-91
2022/07/14 12:46:24;;;;;;;2.25;1.55;;;28.90;48.50;;;;;;5094201;28;20170;-91
2022/07/14 12:48:50;;;;;;;2.97;1.40;;;28.90;49.40;;;;;;5095412;28;20169;-91
2022/07/14 12:51:45;;;;;;;2.08;1.50;;;28.90;50.10;;;;;;5093016;28;20231;-92
2022/07/14 12:54:19;;;;;;;3.75;1.65;;;28.90;50.20;;;;;;5095592;28;20174;-92
2022/07/14 12:56:46;;;;;;;2.22;1.40;;;28.90;50.20;;;;;;5094706;28;20166;-92
2022/07/14 12:59:15;;;;;;;1.92;1.52;;;28.90;50.10;;;;;;5096539;28;20185;-91
2022/07/14 13:01:59;;;;;;;5.13;1.75;;;28.90;50.10;;;;;;5094202;28;20201;-91
2022/07/14 13:04:32;;;;;;;2.50;1.50;;;28.90;48.90;;;;;;5094776;28;20189;-91
2022/07/14 13:07:02;;;;;;;3.55;1.70;;;28.90;49.10;;;;;;5094210;28;20174;-91
2022/07/14 13:09:28;;;;;;;2.50;1.42;;;28.90;48.70;;;;;;5094067;28;20205;-88
2022/07/14 13:11:55;;;;;;;4.57;1.70;;;28.90;49.20;;;;;;5093423;28;20524;-90
2022/07/14 13:14:24;;;;;;;4.30;1.73;;;28.90;49.20;;;;;;5093692;28;20457;-90
2022/07/14 13:16:50;;;;;;;4.15;1.88;;;28.90;47.70;;;;;;5091691;28;20174;-92
2022/07/14 13:19:22;;;;;;;4.30;1.63;;;28.90;48.60;;;;;;5109950;28;20235;-91
2022/07/14 13:21:56;;;;;;;4.13;2.00;;;29.00;48.80;;;;;;5091856;28;20170;-91